Time;durP1;ratioP1;P1;durP2;ratioP2;P2;SDS_P1;SDS_P2;PMS_P1;PMS_P2;Temp;Humidity;BMP_temperature;BMP_pressure;BME280_temperature;BME280_humidity;BME280_pressure;Samples;Min_cycle;Max_cycle;Signal;HPM_P1;HPM_P2
2022/07/12 00:02:16;;;;;;;37.25;27.73;;;;;;;30.96;79.63;97528.25;4989355;28;20124;-71
2022/07/12 00:04:58;;;;;;;41.00;27.40;;;;;;;31.03;79.43;97525.53;4989713;28;20042;-70
2022/07/12 00:07:55;;;;;;;37.55;27.55;;;;;;;30.99;79.84;97524.72;4991644;28;20050;-70
2022/07/12 00:10:31;;;;;;;39.80;27.63;;;;;;;30.98;79.83;97532.22;4989352;28;20061;-70
2022/07/12 00:13:20;;;;;;;40.78;28.00;;;;;;;31.04;79.48;97532.69;4971002;28;20579;-70
2022/07/12 00:16:08;;;;;;;51.47;31.38;;;;;;;30.96;80.09;97529.03;4988081;28;20116;-69
2022/07/12 00:18:50;;;;;;;43.42;29.58;;;;;;;30.98;80.23;97528.66;4971826;28;20124;-69
2022/07/12 00:21:39;;;;;;;46.88;31.23;;;;;;;30.91;80.46;97529.38;4988789;28;20062;-70
2022/07/12 00:24:21;;;;;;;38.67;29.88;;;;;;;30.91;80.95;97537.69;4988768;28;20050;-70
2022/07/12 00:27:11;;;;;;;43.75;31.85;;;;;;;30.93;80.61;97529.78;4988918;28;20153;-70
2022/07/12 00:29:52;;;;;;;51.13;32.28;;;;;;;30.84;80.42;97529.28;4988976;28;20050;-71
2022/07/12 00:32:41;;;;;;;46.60;32.63;;;;;;;30.77;81.35;97532.75;4990620;28;20058;-70
2022/07/12 00:35:23;;;;;;;55.95;31.70;;;;;;;30.79;80.66;97535.16;4988622;28;20061;-70
2022/07/12 00:38:12;;;;;;;52.53;33.63;;;;;;;30.76;80.87;97527.56;4988510;28;20069;-70
2022/07/12 00:40:54;;;;;;;57.80;35.13;;;;;;;30.78;80.80;97533.53;4988908;28;20047;-70
2022/07/12 00:43:43;;;;;;;53.58;33.53;;;;;;;30.85;80.98;97533.63;4969214;28;20439;-70
2022/07/12 00:46:33;;;;;;;55.92;34.83;;;;;;;30.90;80.82;97530.56;4973026;28;21041;-71
2022/07/12 00:49:21;;;;;;;49.83;32.78;;;;;;;30.97;80.95;97538.94;5012202;28;20045;-70
2022/07/12 00:52:04;;;;;;;48.92;33.22;;;;;;;30.90;79.86;97538.88;5008814;28;20690;-70
2022/07/12 00:54:58;;;;;;;53.88;32.55;;;;;;;30.87;80.24;97545.13;4991514;28;20041;-70
2022/07/12 00:57:48;;;;;;;48.42;31.02;;;;;;;30.91;79.56;97548.75;5026856;28;20164;-71
2022/07/12 01:00:36;;;;;;;51.67;31.00;;;;;;;31.05;80.06;97545.38;5037513;28;20057;-71
2022/07/12 01:03:19;;;;;;;51.50;30.92;;;;;;;31.13;79.45;97547.06;5029498;28;20050;-68
2022/07/12 01:06:08;;;;;;;46.03;30.30;;;;;;;31.12;79.69;97544.66;5008672;28;20073;-70
2022/07/12 01:08:50;;;;;;;41.08;28.08;;;;;;;31.20;79.25;97543.53;5011356;28;20053;-70
2022/07/12 01:11:42;;;;;;;45.45;28.52;;;;;;;31.31;79.58;97536.13;5007793;28;20046;-70
2022/07/12 01:14:32;;;;;;;41.05;26.17;;;;;;;31.29;79.38;97544.03;5027081;28;20723;-70
2022/07/12 01:17:22;;;;;;;38.38;26.00;;;;;;;31.25;78.30;97539.66;5006961;28;20053;-70
2022/07/12 01:20:06;;;;;;;;;;;;;;;31.33;78.25;97542.09;5028386;28;20111;-70
2022/07/12 01:23:01;;;;;;;33.00;22.77;;;;;;;31.31;77.47;97540.91;5027185;28;20344;-70
2022/07/12 01:25:43;;;;;;;30.48;21.25;;;;;;;31.46;77.48;97536.28;5027405;28;20140;-70
2022/07/12 01:28:32;;;;;;;35.05;22.80;;;;;;;31.50;76.30;97539.94;5006908;28;20108;-70
2022/07/12 01:31:28;;;;;;;30.73;22.08;;;;;;;31.65;77.01;97538.88;5006906;28;20058;-70
2022/07/12 01:34:04;;;;;;;34.13;23.60;;;;;;;31.70;77.75;97534.94;5026144;28;20049;-70
2022/07/12 01:37:00;;;;;;;35.78;23.52;;;;;;;31.65;75.99;97527.78;5016544;28;20060;-69
2022/07/12 01:39:36;;;;;;;32.75;22.38;;;;;;;31.82;77.17;97539.41;5012712;28;20536;-69
2022/07/12 01:42:33;;;;;;;33.47;23.65;;;;;;;31.84;75.51;97546.16;5026454;28;20049;-68
2022/07/12 01:45:09;;;;;;;35.60;23.02;;;;;;;31.85;75.47;97536.66;5026340;28;20480;-69
2022/07/12 01:47:59;;;;;;;32.08;22.60;;;;;;;32.04;74.87;97530.09;5027041;28;20045;-69
2022/07/12 01:50:49;;;;;;;26.42;20.15;;;;;;;32.08;73.94;97530.09;5026408;28;20053;-70
2022/07/12 01:53:38;;;;;;;31.40;21.33;;;;;;;32.06;73.54;97532.47;5026763;28;20045;-69
2022/07/12 01:56:34;;;;;;;28.02;19.17;;;;;;;32.46;73.69;97527.97;5006642;28;20050;-68
2022/07/12 01:59:10;;;;;;;28.77;20.98;;;;;;;32.75;71.43;97534.47;5026141;28;20056;-70
2022/07/12 02:02:07;;;;;;;27.42;21.13;;;;;;;32.72;71.25;97532.50;5027371;28;20048;-70
2022/07/12 02:04:44;;;;;;;31.60;19.85;;;;;;;33.23;70.01;97539.03;5026925;28;20115;-69
2022/07/12 02:07:39;;;;;;;31.02;19.58;;;;;;;33.49;69.75;97544.25;5026290;28;20041;-69
2022/07/12 02:10:28;;;;;;;29.40;20.45;;;;;;;33.73;69.20;97550.28;5007707;28;20548;-68
2022/07/12 02:13:17;;;;;;;29.17;19.77;;;;;;;33.99;69.24;97553.84;5006459;28;20046;-69
2022/07/12 02:15:59;;;;;;;25.25;19.98;;;;;;;34.17;67.65;97551.09;5007207;28;20042;-69
2022/07/12 02:18:48;;;;;;;26.00;18.80;;;;;;;34.55;66.82;97545.81;5006514;28;20057;-70
2022/07/12 02:21:31;;;;;;;27.13;20.13;;;;;;;35.07;64.08;97546.03;5006243;28;20073;-70
2022/07/12 02:24:19;;;;;;;27.75;20.17;;;;;;;35.07;63.49;97546.03;5006078;28;20528;-69
2022/07/12 02:27:08;;;;;;;25.48;18.95;;;;;;;35.36;63.67;97540.34;5005796;28;20046;-70
2022/07/12 02:29:50;;;;;;;25.63;19.63;;;;;;;34.85;63.48;97535.00;5006510;28;20049;-69
2022/07/12 02:32:46;;;;;;;25.40;18.77;;;;;;;34.32;65.44;97542.28;5006497;28;20058;-69
2022/07/12 02:35:22;;;;;;;29.45;19.65;;;;;;;34.48;64.99;97553.00;5005583;28;20557;-70
2022/07/12 02:38:11;;;;;;;27.83;19.05;;;;;;;35.43;62.54;97540.28;5002905;28;20108;-70
2022/07/12 02:41:00;;;;;;;26.67;20.00;;;;;;;35.15;63.88;97544.78;5003966;28;20046;-70
2022/07/12 02:43:43;;;;;;;29.05;22.27;;;;;;;35.98;60.48;97536.69;4989761;28;20050;-70
2022/07/12 02:46:32;;;;;;;30.80;19.83;;;;;;;36.59;59.48;97543.69;5006389;28;20050;-69
2022/07/12 02:49:13;;;;;;;27.48;20.33;;;;;;;36.00;61.72;97539.88;5006396;28;20058;-69
2022/07/12 02:52:03;;;;;;;25.48;19.10;;;;;;;35.85;62.61;97538.41;5006629;28;20050;-69
2022/07/12 02:54:50;;;;;;;32.63;22.33;;;;;;;36.07;61.12;97539.78;5023047;28;20053;-70
2022/07/12 02:57:39;;;;;;;23.88;19.58;;;;;;;35.99;60.15;97538.28;5024760;28;20066;-70
2022/07/12 03:00:28;;;;;;;24.38;21.10;;;;;;;36.07;60.03;97539.00;4985877;28;20058;-70
2022/07/12 03:03:12;;;;;;;29.33;21.10;;;;;;;36.06;61.03;97541.00;4986297;28;20149;-70
2022/07/12 03:06:02;;;;;;;24.88;20.45;;;;;;;36.38;57.45;97541.91;4986602;28;20046;-70
2022/07/12 03:08:45;;;;;;;29.63;21.13;;;;;;;36.82;57.34;97537.44;4985852;28;20112;-70
2022/07/12 03:11:33;;;;;;;26.15;20.95;;;;;;;37.91;54.45;97543.09;5011442;28;20061;-70
2022/07/12 03:14:22;;;;;;;23.80;19.92;;;;;;;38.54;52.46;97543.22;5014326;28;20468;-69
2022/07/12 03:17:04;;;;;;;25.83;20.48;;;;;;;39.43;51.31;97548.19;5025584;28;20049;-69
2022/07/12 03:19:53;;;;;;;29.55;20.88;;;;;;;39.32;50.94;97551.22;4985808;28;20050;-70
2022/07/12 03:22:36;;;;;;;28.08;20.88;;;;;;;39.61;49.61;97550.59;4986046;28;20050;-69
2022/07/12 03:25:25;;;;;;;29.33;20.42;;;;;;;38.33;53.14;97547.22;4985593;28;20136;-68
2022/07/12 03:28:13;;;;;;;27.63;20.30;;;;;;;37.83;55.92;97553.63;4986022;28;20181;-69
2022/07/12 03:30:55;;;;;;;25.25;19.17;;;;;;;37.73;56.91;97557.41;4985309;28;20161;-69
2022/07/12 03:33:44;;;;;;;25.50;21.63;;;;;;;37.06;56.62;97557.91;4980639;28;20049;-68
2022/07/12 03:36:26;;;;;;;25.63;21.23;;;;;;;37.33;54.85;97559.97;4985294;28;20128;-70
2022/07/12 03:39:15;;;;;;;23.75;20.55;;;;;;;37.61;54.81;97554.00;4985757;28;20050;-69
2022/07/12 03:41:57;;;;;;;23.80;19.48;;;;;;;37.83;55.11;97550.84;4991399;28;20582;-70
2022/07/12 03:44:46;;;;;;;29.98;22.83;;;;;;;36.84;55.98;97563.78;5024363;28;20115;-68
2022/07/12 03:47:28;;;;;;;28.80;23.85;;;;;;;37.21;55.50;97559.34;5024915;28;20061;-70
2022/07/12 03:50:19;;;;;;;30.60;24.73;;;;;;;36.93;55.34;97570.88;5024069;28;20076;-70
2022/07/12 03:53:01;;;;;;;30.02;23.67;;;;;;;37.65;54.75;97567.16;5021954;28;20436;-69
2022/07/12 03:55:56;;;;;;;29.10;24.20;;;;;;;37.32;56.34;97575.97;5021055;28;20111;-69
2022/07/12 03:58:45;;;;;;;29.17;22.75;;;;;;;37.13;57.76;97573.78;4984350;28;20050;-69
2022/07/12 04:01:35;;;;;;;27.85;22.73;;;;;;;36.81;57.25;97580.59;4985344;28;20142;-69
2022/07/12 04:04:17;;;;;;;;;;;;;;;36.73;56.52;97584.69;4997938;28;20050;-69
2022/07/12 04:07:05;;;;;;;27.05;23.50;;;;;;;37.09;54.16;97575.84;5025007;28;19936;-70
2022/07/12 04:09:54;;;;;;;26.85;21.40;;;;;;;37.19;55.93;97566.56;5009523;28;20049;-71
2022/07/12 04:12:43;;;;;;;24.83;20.08;;;;;;;37.31;56.00;97566.00;5025058;28;20057;-69
2022/07/12 04:15:25;;;;;;;23.08;20.65;;;;;;;37.40;54.21;97565.47;5007391;28;20057;-71
2022/07/12 04:18:14;;;;;;;27.90;21.05;;;;;;;37.52;54.45;97562.09;5024515;28;20045;-69
2022/07/12 04:20:56;;;;;;;30.00;23.05;;;;;;;37.20;55.21;97557.78;5013688;28;20056;-69
2022/07/12 04:23:45;;;;;;;28.13;23.58;;;;;;;37.38;53.53;97565.13;5008364;28;20049;-69
2022/07/12 04:26:40;;;;;;;27.58;22.92;;;;;;;37.34;56.06;97562.38;5008389;28;20046;-70
2022/07/12 04:29:20;;;;;;;29.67;23.25;;;;;;;37.32;55.11;97559.19;5001133;28;20062;-69
2022/07/12 04:32:15;;;;;;;30.65;23.08;;;;;;;37.24;55.86;97563.28;5008191;28;20142;-69
2022/07/12 04:34:51;;;;;;;28.90;23.17;;;;;;;37.63;55.39;97561.19;5000676;28;20057;-69
2022/07/12 04:37:46;;;;;;;;;;;;;;;37.34;55.19;97564.38;5008748;28;20079;-69
2022/07/12 04:40:22;;;;;;;29.88;22.33;;;;;;;37.12;55.40;97572.22;5007436;28;20032;-68
2022/07/12 04:43:16;;;;;;;25.80;22.55;;;;;;;37.92;53.01;97573.50;5014048;28;20065;-68
2022/07/12 04:45:52;;;;;;;29.38;23.85;;;;;;;37.42;54.48;97574.25;5007317;28;20382;-69
2022/07/12 04:48:46;;;;;;;33.00;23.95;;;;;;;37.41;53.58;97575.44;5005028;28;20050;-69
2022/07/12 04:51:22;;;;;;;26.27;23.30;;;;;;;37.95;52.58;97577.44;5008883;28;20050;-69
2022/07/12 04:54:12;;;;;;;28.38;24.23;;;;;;;37.85;52.71;97579.22;4988988;28;20050;-69
2022/07/12 04:57:07;;;;;;;27.10;23.67;;;;;;;37.95;53.59;97575.47;5007406;28;20139;-69
2022/07/12 05:00:04;;;;;;;28.23;23.75;;;;;;;38.20;52.35;97577.06;4985571;28;20390;-69
2022/07/12 05:02:39;;;;;;;27.30;24.33;;;;;;;37.95;52.44;97575.47;4987493;28;20046;-69
2022/07/12 05:05:33;;;;;;;30.20;24.27;;;;;;;38.08;55.86;97578.44;4983315;28;20562;-69
2022/07/12 05:08:09;;;;;;;28.73;25.63;;;;;;;37.67;51.99;97585.09;4985483;28;20767;-69
2022/07/12 05:10:58;;;;;;;;;;;;;;;38.35;50.99;97584.00;4990471;28;20407;-69
2022/07/12 05:13:47;;;;;;;30.75;23.40;;;;;;;38.34;51.21;97588.00;4987980;28;19926;-69
2022/07/12 05:16:29;;;;;;;29.00;24.67;;;;;;;37.70;52.71;97583.44;4989606;28;20053;-68
2022/07/12 05:19:18;;;;;;;26.35;23.33;;;;;;;37.78;52.47;97585.72;4986592;28;20052;-68
2022/07/12 05:22:00;;;;;;;;;;;;;;;38.10;53.55;97578.03;5001638;28;20037;-68
2022/07/12 05:24:49;;;;;;;27.27;23.45;;;;;;;38.31;52.87;97574.06;4979896;28;19926;-68
2022/07/12 05:27:31;;;;;;;29.93;23.67;;;;;;;38.28;53.94;97580.53;4986904;28;20575;-69
2022/07/12 05:30:21;;;;;;;28.65;23.45;;;;;;;38.13;52.70;97574.38;4987073;28;20556;-68
2022/07/12 05:33:02;;;;;;;;;;;;;;;37.89;52.42;97571.56;4982790;28;20061;-68
2022/07/12 05:35:52;;;;;;;31.05;24.17;;;;;;;37.53;53.17;97583.28;4988032;28;19926;-69
2022/07/12 05:38:34;;;;;;;31.85;25.95;;;;;;;36.79;53.80;97588.63;4984955;28;20058;-70
2022/07/12 05:41:22;;;;;;;28.30;24.85;;;;;;;36.88;57.17;97580.53;4983520;28;20054;-69
2022/07/12 05:44:05;;;;;;;27.73;23.77;;;;;;;36.51;58.67;97589.69;4991771;28;20068;-70
2022/07/12 05:46:57;;;;;;;31.65;25.52;;;;;;;36.28;59.44;97593.91;4976363;28;20050;-70
2022/07/12 05:49:40;;;;;;;37.33;26.45;;;;;;;35.77;61.50;97590.72;4970676;28;20498;-72
2022/07/12 05:55:36;;;;;;;37.15;26.33;;;;;;;35.38;58.41;97590.94;4971048;28;20046;-72
2022/07/12 05:58:26;;;;;;;34.22;26.85;;;;;;;35.14;60.36;97581.44;4987075;28;20062;-69
2022/07/12 06:01:20;;;;;;;38.28;25.90;;;;;;;35.24;61.03;97573.06;4989870;28;20042;-70
2022/07/12 06:04:02;;;;;;;29.83;24.50;;;;;;;35.08;59.11;97558.78;4994986;28;20113;-70
2022/07/12 06:06:52;;;;;;;31.05;24.63;;;;;;;35.13;60.81;97563.94;4988440;28;20061;-70
2022/07/12 06:09:34;;;;;;;33.00;23.85;;;;;;;35.12;59.72;97558.75;4969665;28;20108;-69
2022/07/12 06:12:35;;;;;;;30.83;24.30;;;;;;;34.81;62.92;97553.72;4959916;28;20050;-70
2022/07/12 06:15:17;;;;;;;35.65;26.80;;;;;;;34.78;59.50;97550.94;4999868;28;20385;-69
2022/07/12 06:18:19;;;;;;;31.80;24.88;;;;;;;34.55;61.48;97554.97;5020265;28;20440;-69
2022/07/12 06:20:55;;;;;;;32.95;26.35;;;;;;;34.66;62.01;97566.91;4976077;28;20051;-71
2022/07/12 06:23:49;;;;;;;33.88;27.42;;;;;;;34.63;63.69;97584.41;4990053;28;20072;-70
2022/07/12 06:26:25;;;;;;;45.13;31.33;;;;;;;33.69;66.70;97580.88;4987660;28;20061;-68
2022/07/12 06:29:15;;;;;;;44.25;29.80;;;;;;;33.66;66.88;97575.31;4975972;28;20050;-69
2022/07/12 06:31:58;;;;;;;41.80;31.08;;;;;;;33.53;66.41;97580.41;4984438;28;20042;-67
2022/07/12 06:34:46;;;;;;;38.40;30.20;;;;;;;33.26;68.09;97589.09;4985410;28;20165;-70
2022/07/12 06:37:36;;;;;;;37.92;29.50;;;;;;;33.08;67.24;97591.00;4967075;28;20086;-69
2022/07/12 06:40:28;;;;;;;42.38;28.17;;;;;;;32.88;67.44;97591.28;4956324;28;20062;-70
2022/07/12 06:43:19;;;;;;;28.95;21.45;;;;;;;32.69;65.68;97583.28;4972884;28;20050;-64
2022/07/12 06:46:07;;;;;;;22.42;17.77;;;;;;;32.70;65.61;97576.53;4985778;28;20109;-68
2022/07/12 06:48:56;;;;;;;18.50;13.75;;;;;;;32.85;64.46;97580.97;4984943;28;20497;-69
2022/07/12 06:51:39;;;;;;;14.40;10.93;;;;;;;32.89;63.81;97583.78;4984074;28;20054;-67
2022/07/12 06:54:27;;;;;;;12.85;10.10;;;;;;;33.23;63.67;97578.78;4985808;28;22209;-71
2022/07/12 06:57:10;;;;;;;12.60;9.18;;;;;;;33.53;62.49;97581.22;4991250;28;20038;-70
2022/07/12 07:00:06;;;;;;;13.25;8.60;;;;;;;33.87;62.40;97560.59;5013176;28;20054;-67
2022/07/12 07:02:54;;;;;;;13.77;9.10;;;;;;;34.46;61.74;97543.47;4668428;28;10001648;-67
2022/07/12 07:05:59;;;;;;;10.15;9.10;;;;;;;35.09;59.89;97526.91;4979353;28;20050;-69
2022/07/12 07:08:46;;;;;;;11.95;9.90;;;;;;;34.80;59.31;97531.84;5011316;28;20041;-71
2022/07/12 07:11:36;;;;;;;16.02;10.57;;;;;;;35.14;57.49;97540.44;5004963;28;20069;-69
2022/07/12 07:14:28;;;;;;;15.55;11.30;;;;;;;35.25;59.73;97532.03;5012049;28;20177;-70
2022/07/12 07:17:19;;;;;;;12.73;11.35;;;;;;;34.79;57.40;97519.88;4987560;28;20058;-69
2022/07/12 07:20:01;;;;;;;14.32;11.95;;;;;;;34.69;59.94;97523.50;4997397;28;20444;-68
2022/07/12 07:22:49;;;;;;;13.48;11.90;;;;;;;34.50;58.99;97530.31;5007694;28;20104;-68
2022/07/12 07:25:31;;;;;;;13.40;11.80;;;;;;;34.49;60.44;97539.84;5004295;28;20128;-68
2022/07/12 07:28:20;;;;;;;14.40;12.85;;;;;;;34.28;60.72;97541.50;4994302;28;20590;-69
2022/07/12 07:31:22;;;;;;;18.35;13.40;;;;;;;34.07;61.78;97533.97;4991817;28;20128;-68
2022/07/12 07:34:11;;;;;;;21.15;13.70;;;;;;;33.96;62.80;97540.72;5004481;28;20136;-68
2022/07/12 07:37:00;;;;;;;17.30;14.85;;;;;;;33.50;62.65;97542.28;5012377;28;20081;-68
2022/07/12 07:39:49;;;;;;;19.05;15.43;;;;;;;33.60;62.15;97535.91;5010311;28;20131;-69
2022/07/12 07:42:38;;;;;;;24.30;16.40;;;;;;;33.37;62.61;97532.72;5008255;28;20104;-69
2022/07/12 07:45:27;;;;;;;19.25;15.93;;;;;;;33.14;62.62;97533.88;5008653;28;20654;-68
2022/07/12 07:48:09;;;;;;;18.75;14.43;;;;;;;33.38;60.89;97525.97;5005633;28;20050;-68
2022/07/12 07:51:05;;;;;;;17.40;14.68;;;;;;;33.35;60.74;97533.91;5005059;28;20064;-69
2022/07/12 07:53:47;;;;;;;21.75;15.48;;;;;;;33.50;59.51;97525.59;5002131;28;20654;-69
2022/07/12 07:56:37;;;;;;;22.33;18.27;;;;;;;33.56;59.42;97526.78;5008883;28;20137;-70
2022/07/12 07:59:18;;;;;;;29.55;23.45;;;;;;;33.31;62.46;97535.88;5007578;28;20052;-66
2022/07/12 08:02:07;;;;;;;30.67;23.40;;;;;;;33.54;63.30;97523.59;5008739;28;20050;-66
2022/07/12 08:04:50;;;;;;;31.65;24.33;;;;;;;33.40;62.73;97524.38;5008662;28;20643;-68
2022/07/12 08:07:40;;;;;;;32.20;23.60;;;;;;;33.16;62.74;97512.03;5007466;28;20128;-68
2022/07/12 08:10:36;;;;;;;41.15;24.65;;;;;;;33.41;63.82;97500.16;5007732;28;20108;-67
2022/07/12 08:13:17;;;;;;;28.33;22.85;;;;;;;33.27;63.34;97493.38;5006961;28;20164;-67
2022/07/12 08:16:06;;;;;;;37.83;24.20;;;;;;;33.24;64.06;97483.03;5006487;28;20057;-66
2022/07/12 08:18:49;;;;;;;30.92;24.25;;;;;;;33.24;63.74;97480.25;5006982;28;20045;-66
2022/07/12 08:21:38;;;;;;;32.00;24.08;;;;;;;33.26;66.71;97477.09;5007926;28;20045;-66
2022/07/12 08:24:27;;;;;;;30.73;22.85;;;;;;;33.21;64.75;97475.50;4984093;28;20050;-67
2022/07/12 08:27:17;;;;;;;29.60;22.25;;;;;;;33.17;64.39;97474.69;5008464;28;20140;-67
2022/07/12 08:29:58;;;;;;;33.50;23.60;;;;;;;33.02;63.27;97470.25;5007894;28;20073;-67
2022/07/12 08:32:47;;;;;;;33.15;22.67;;;;;;;32.90;64.36;97461.09;5007608;28;20572;-67
2022/07/12 08:35:37;;;;;;;30.48;21.50;;;;;;;32.87;65.13;97466.66;4993627;28;20053;-68
2022/07/12 08:38:25;;;;;;;26.73;20.60;;;;;;;32.81;64.43;97469.03;5008197;28;20077;-67
2022/07/12 08:41:09;;;;;;;25.88;19.92;;;;;;;33.00;63.33;97472.63;5009370;28;20050;-68
2022/07/12 08:43:57;;;;;;;26.17;20.35;;;;;;;32.70;63.72;97465.41;5012262;28;20469;-68
2022/07/12 08:46:40;;;;;;;33.38;20.27;;;;;;;32.88;63.63;97462.69;5005840;28;20042;-68
2022/07/12 08:49:28;;;;;;;28.15;21.05;;;;;;;32.94;62.88;97459.13;5006428;28;20061;-67
2022/07/12 08:52:37;;;;;;;21.65;17.83;;;;;;;33.04;62.71;97451.19;5007813;28;20054;-68
2022/07/12 08:55:40;;;;;;;25.98;18.90;;;;;;;33.05;61.99;97455.56;5003427;28;20119;-67
2022/07/12 08:58:28;;;;;;;24.70;20.13;;;;;;;33.00;63.38;97447.63;5007401;28;20081;-69
2022/07/12 09:01:50;;;;;;;25.77;20.42;;;;;;;33.13;61.09;97446.09;5008335;28;20053;-68
2022/07/12 09:04:39;;;;;;;28.42;19.70;;;;;;;33.06;61.34;97440.50;5008386;28;20062;-67
2022/07/12 09:07:21;;;;;;;26.00;20.65;;;;;;;33.24;61.82;97441.31;5007492;28;20049;-67
2022/07/12 09:10:15;;;;;;;25.75;20.30;;;;;;;33.40;61.32;97437.34;5008190;28;20477;-67
2022/07/12 09:13:04;;;;;;;22.95;19.65;;;;;;;33.42;62.13;97429.41;4994417;28;20137;-67
2022/07/12 09:15:47;;;;;;;26.17;20.83;;;;;;;33.19;61.03;97419.50;4988476;28;20057;-68
2022/07/12 09:18:35;;;;;;;27.77;18.48;;;;;;;33.48;60.00;97419.50;4988378;28;20137;-67
2022/07/12 09:21:32;;;;;;;26.17;19.38;;;;;;;33.67;60.58;97407.16;4988219;28;20047;-67
2022/07/12 09:24:32;;;;;;;30.90;18.05;;;;;;;33.86;61.53;97400.38;4968836;28;20062;-67
2022/07/12 09:27:08;;;;;;;23.33;17.15;;;;;;;33.83;57.44;97398.41;4992326;28;20549;-67
2022/07/12 09:30:04;;;;;;;22.25;16.15;;;;;;;33.66;57.34;97398.03;5007431;28;20092;-68
2022/07/12 09:36:07;;;;;;;22.65;15.32;;;;;;;34.28;57.23;97379.19;4988316;28;20105;-68
2022/07/12 09:39:02;;;;;;;20.27;16.17;;;;;;;34.39;57.39;97373.56;4987829;28;20046;-68
2022/07/12 09:41:54;;;;;;;21.00;15.90;;;;;;;34.26;58.12;97370.44;4992046;28;20092;-68
2022/07/12 09:44:44;;;;;;;27.75;16.50;;;;;;;34.36;57.47;97372.41;5006238;28;20473;-67
2022/07/12 09:47:34;;;;;;;31.95;16.98;;;;;;;34.34;58.07;97369.22;5007562;28;20089;-66
2022/07/12 09:50:22;;;;;;;22.67;17.35;;;;;;;34.40;57.29;97364.81;5007083;28;20054;-67
2022/07/12 09:53:14;;;;;;;29.38;16.90;;;;;;;34.38;58.61;97361.66;5007301;28;20129;-67
2022/07/12 09:55:56;;;;;;;21.45;16.35;;;;;;;34.46;57.82;97356.81;5007346;28;20050;-67
2022/07/12 09:58:55;;;;;;;25.45;16.73;;;;;;;34.33;55.47;97356.50;4995961;28;20127;-67
2022/07/12 10:01:45;;;;;;;19.52;15.88;;;;;;;34.38;55.80;97344.16;5026742;28;20524;-68
2022/07/12 10:04:30;;;;;;;20.48;14.80;;;;;;;34.49;57.48;97336.50;5026442;28;20065;-68
2022/07/12 10:07:20;;;;;;;28.23;16.55;;;;;;;34.42;57.48;97331.00;5008968;28;20065;-69
2022/07/12 10:10:03;;;;;;;21.55;15.93;;;;;;;34.32;56.02;97330.63;5019484;28;20551;-68
2022/07/12 10:12:51;;;;;;;21.20;15.10;;;;;;;34.39;58.11;97326.22;5006712;28;20045;-68
2022/07/12 10:15:43;;;;;;;21.88;15.35;;;;;;;34.52;57.64;97325.34;5006114;28;20054;-67
2022/07/12 10:18:27;;;;;;;17.50;15.40;;;;;;;34.39;57.76;97329.78;5004202;28;20420;-67
2022/07/12 10:21:24;;;;;;;25.63;16.17;;;;;;;34.31;56.38;97333.81;5021748;28;20503;-69
2022/07/12 10:24:07;;;;;;;20.20;15.18;;;;;;;34.17;54.69;97325.56;5006459;28;20437;-67
2022/07/12 10:26:55;;;;;;;22.23;14.80;;;;;;;34.37;55.16;97318.25;5006080;28;20053;-68
2022/07/12 10:29:45;;;;;;;22.77;13.90;;;;;;;34.46;54.59;97306.69;4988461;28;20046;-69
2022/07/12 10:32:38;;;;;;;19.48;13.75;;;;;;;34.51;56.53;97309.84;5005106;28;20045;-68
2022/07/12 10:35:30;;;;;;;17.20;14.32;;;;;;;34.48;57.59;97299.50;5015241;28;20146;-69
2022/07/12 10:38:11;;;;;;;23.85;14.57;;;;;;;34.54;54.77;97285.94;5007622;28;20042;-70
2022/07/12 10:41:03;;;;;;;22.13;14.68;;;;;;;34.65;56.39;97274.72;5005191;28;20061;-69
2022/07/12 10:44:09;;;;;;;22.35;14.95;;;;;;;34.70;55.60;97272.31;5006578;28;20103;-71
2022/07/12 10:47:06;;;;;;;18.48;14.65;;;;;;;34.76;54.76;97263.50;5004702;28;20046;-70
2022/07/12 10:49:55;;;;;;;26.77;16.48;;;;;;;34.82;53.29;97251.50;5004009;28;20057;-70
2022/07/12 10:52:37;;;;;;;21.60;15.65;;;;;;;34.83;55.05;97238.34;5005074;28;20141;-70
2022/07/12 10:55:26;;;;;;;25.67;17.92;;;;;;;34.75;53.87;97243.22;5007054;28;20546;-68
2022/07/12 10:58:09;;;;;;;26.15;16.58;;;;;;;34.84;54.39;97237.97;5003643;28;20057;-67
2022/07/12 11:01:10;;;;;;;25.52;17.75;;;;;;;34.84;55.18;97242.75;5006034;28;20130;-68
2022/07/12 11:04:00;;;;;;;28.45;17.42;;;;;;;34.80;56.37;97236.41;5005813;28;20061;-68
2022/07/12 11:06:48;;;;;;;21.83;17.85;;;;;;;34.74;54.38;97243.63;5005109;28;20050;-70
2022/07/12 11:09:36;;;;;;;29.17;18.45;;;;;;;34.73;54.95;97240.03;4986045;28;20481;-67
2022/07/12 11:12:22;;;;;;;27.05;17.85;;;;;;;34.72;53.96;97241.25;4986849;28;20126;-68
2022/07/12 11:15:12;;;;;;;26.95;19.88;;;;;;;34.67;55.29;97239.69;5003701;28;20050;-67
2022/07/12 11:21:46;;;;;;;29.33;19.57;;;;;;;34.77;54.51;97210.13;5000320;28;20049;-68
2022/07/12 11:24:59;;;;;;;27.63;19.90;;;;;;;34.90;57.85;97205.63;5001643;28;20694;-67
2022/07/12 11:27:51;;;;;;;25.30;19.50;;;;;;;34.97;57.47;97213.16;5003390;28;20053;-67
2022/07/12 11:30:41;;;;;;;36.60;20.90;;;;;;;34.91;55.13;97214.78;5008703;28;20456;-68
2022/07/12 11:34:02;;;;;;;35.22;21.00;;;;;;;34.83;54.87;97208.47;5006283;28;20045;-69
2022/07/12 11:36:38;;;;;;;28.08;20.95;;;;;;;34.91;56.08;97209.22;4992367;28;20064;-68
2022/07/12 11:39:42;;;;;;;29.08;22.00;;;;;;;34.90;55.57;97208.44;5008541;28;20112;-68
2022/07/12 11:42:17;;;;;;;34.00;22.00;;;;;;;34.92;55.46;97202.44;5018085;28;20103;-68
2022/07/12 11:45:12;;;;;;;30.48;20.77;;;;;;;34.99;55.67;97198.81;5029357;28;20055;-68
2022/07/12 11:47:48;;;;;;;34.47;21.83;;;;;;;34.79;55.82;97204.94;5023682;28;20068;-68
2022/07/12 11:50:44;;;;;;;32.30;21.00;;;;;;;34.94;55.48;97204.81;5009541;28;20049;-67
2022/07/12 11:53:21;;;;;;;30.05;21.08;;;;;;;34.96;55.53;97197.63;5029060;28;20060;-69
2022/07/12 11:56:16;;;;;;;30.20;20.27;;;;;;;34.97;55.66;97187.25;5028751;28;20046;-68
2022/07/12 11:59:04;;;;;;;32.47;21.30;;;;;;;34.95;58.17;97178.50;5011156;28;20058;-68
2022/07/12 12:02:23;;;;;;;28.30;19.88;;;;;;;34.94;56.48;97186.09;5008598;28;20057;-68
2022/07/12 12:05:06;;;;;;;31.38;20.20;;;;;;;34.95;54.23;97178.50;4997035;28;20099;-67
2022/07/12 12:07:54;;;;;;;23.48;17.65;;;;;;;34.75;53.39;97176.31;4990348;28;20050;-67
2022/07/12 12:10:37;;;;;;;25.48;18.80;;;;;;;34.91;52.37;97172.97;5005470;28;20042;-68
2022/07/12 12:13:30;;;;;;;28.20;18.85;;;;;;;35.03;54.52;97169.69;5008678;28;20560;-71
2022/07/12 12:16:13;;;;;;;23.92;19.88;;;;;;;34.98;54.85;97166.53;5006532;28;20111;-68
2022/07/12 12:19:02;;;;;;;26.73;18.85;;;;;;;35.02;53.90;97170.88;5006830;28;20604;-68
2022/07/12 12:21:43;;;;;;;27.90;18.83;;;;;;;34.96;54.15;97157.81;5004201;28;20049;-68
2022/07/12 12:24:32;;;;;;;24.50;18.98;;;;;;;35.05;53.54;97158.13;4992107;28;20057;-67
2022/07/12 12:27:31;;;;;;;22.92;17.88;;;;;;;35.16;54.29;97160.75;5004293;28;20113;-66
2022/07/12 12:30:57;;;;;;;27.73;19.13;;;;;;;34.92;55.23;97162.63;5006195;28;20042;-68
2022/07/12 12:33:35;;;;;;;29.13;20.73;;;;;;;34.95;54.16;97156.22;5008011;28;20050;-70
2022/07/12 12:36:42;;;;;;;26.33;19.52;;;;;;;34.92;54.85;97157.06;5006645;28;20492;-74
2022/07/12 12:39:31;;;;;;;22.15;18.25;;;;;;;35.03;54.84;97152.94;5005292;28;20069;-70
2022/07/12 12:42:14;;;;;;;22.58;18.67;;;;;;;34.96;54.16;97160.59;5008386;28;20052;-69
2022/07/12 12:45:04;;;;;;;25.05;19.23;;;;;;;35.02;54.81;97158.94;5003462;28;20420;-68
2022/07/12 12:48:12;;;;;;;23.50;19.40;;;;;;;35.04;53.71;97162.88;4988558;28;20046;-68
2022/07/12 12:51:04;;;;;;;;;;;;;;;35.10;56.51;97157.63;5007270;28;20046;-69
2022/07/12 12:54:03;;;;;;;30.25;20.88;;;;;;;35.07;55.16;97156.47;5007850;28;20353;-70
2022/07/12 12:56:44;;;;;;;37.35;21.05;;;;;;;35.03;56.12;97155.72;5006925;28;20050;-70
2022/07/12 12:59:41;;;;;;;24.50;19.27;;;;;;;35.05;55.09;97150.53;4659502;28;10000411;-69
2022/07/12 13:02:35;;;;;;;30.80;20.00;;;;;;;35.00;54.23;97150.19;5004438;28;20148;-68
2022/07/12 13:05:26;;;;;;;26.10;19.75;;;;;;;34.95;54.93;97154.25;5012444;28;20803;-65
2022/07/12 13:08:17;;;;;;;29.95;20.58;;;;;;;34.95;55.37;97148.66;5004387;28;20668;-66